createdAt,value
2022-11-02T00:00:11.216Z,84.85
2022-11-02T00:01:11.386Z,84.87
2022-11-02T00:02:11.326Z,84.95
2022-11-02T00:03:11.378Z,85.00
2022-11-02T00:04:11.183Z,85.01
2022-11-02T00:05:11.641Z,85.01
2022-11-02T00:06:11.149Z,85.01
2022-11-02T00:07:11.278Z,85.01
2022-11-02T00:08:11.131Z,85.17
2022-11-02T00:09:11.301Z,85.26
2022-11-02T00:10:11.154Z,85.36
2022-11-02T00:11:11.233Z,85.45
2022-11-02T00:12:11.089Z,85.47
2022-11-02T00:13:11.262Z,85.47
2022-11-02T00:14:11.072Z,85.49
2022-11-02T00:15:11.185Z,85.53
2022-11-02T00:16:11.334Z,85.69
2022-11-02T00:17:11.047Z,85.80
2022-11-02T00:18:11.165Z,85.83
2022-11-02T00:19:11.019Z,85.84
2022-11-02T00:20:11.190Z,85.89
2022-11-02T00:21:11.078Z,85.91
2022-11-02T00:22:11.163Z,85.96
2022-11-02T00:23:11.039Z,85.83
2022-11-02T00:24:11.142Z,85.84
2022-11-02T00:25:10.963Z,85.89
2022-11-02T00:26:11.092Z,85.88
2022-11-02T00:27:10.935Z,85.82
2022-11-02T00:28:11.140Z,85.72
2022-11-02T00:29:10.922Z,85.68
2022-11-02T00:30:11.127Z,85.59
2022-11-02T00:31:10.898Z,85.44
2022-11-02T00:32:11.016Z,85.42
2022-11-02T00:33:10.881Z,85.45
2022-11-02T00:34:11.096Z,85.50
2022-11-02T00:35:10.856Z,85.50
2022-11-02T00:36:11.018Z,85.47
2022-11-02T00:37:10.849Z,85.38
2022-11-02T00:38:11.244Z,85.35
2022-11-02T00:39:10.821Z,85.35
2022-11-02T00:40:11.081Z,85.45
2022-11-02T00:41:10.798Z,85.43
2022-11-02T00:42:10.918Z,85.35
2022-11-02T00:43:10.785Z,85.30
2022-11-02T00:44:10.936Z,85.23
2022-11-02T00:45:10.760Z,85.18
2022-11-02T00:46:10.931Z,85.11
2022-11-02T00:47:10.734Z,85.10
2022-11-02T00:48:10.890Z,85.09
2022-11-02T00:49:10.714Z,85.11
2022-11-02T00:50:10.841Z,85.10
2022-11-02T00:51:10.695Z,85.11
2022-11-02T00:52:10.910Z,85.11
2022-11-02T00:53:10.677Z,85.14
2022-11-02T00:54:10.854Z,85.10
2022-11-02T00:55:10.657Z,85.08
2022-11-02T00:56:10.851Z,85.11
2022-11-02T00:57:10.635Z,85.11
2022-11-02T00:58:10.808Z,85.12
2022-11-02T00:59:10.620Z,85.09
2022-11-02T01:00:10.777Z,85.08
2022-11-02T01:01:10.758Z,85.04
2022-11-02T01:02:11.009Z,85.07
2022-11-02T01:03:10.577Z,85.05
2022-11-02T01:04:11.004Z,85.08
2022-11-02T01:05:10.551Z,85.10
2022-11-02T01:06:10.717Z,85.13
2022-11-02T01:07:10.538Z,85.17
2022-11-02T01:08:10.750Z,85.20
2022-11-02T01:09:10.518Z,85.22
2022-11-02T01:10:10.672Z,85.25
2022-11-02T01:11:10.496Z,85.29
2022-11-02T01:12:10.674Z,85.33
2022-11-02T01:13:10.475Z,85.32
2022-11-02T01:14:10.653Z,85.32
2022-11-02T01:15:10.479Z,85.22
2022-11-02T01:16:10.671Z,85.09
2022-11-02T01:17:10.431Z,85.03
2022-11-02T01:18:10.601Z,84.97
2022-11-02T01:19:10.412Z,84.91
2022-11-02T01:20:10.528Z,84.87
2022-11-02T01:21:10.395Z,84.86
2022-11-02T01:22:10.653Z,84.87
2022-11-02T01:23:10.380Z,84.84
2022-11-02T01:24:11.443Z,84.81
2022-11-02T01:25:10.540Z,84.79
2022-11-02T01:26:10.343Z,84.80
2022-11-02T01:27:10.460Z,84.79
2022-11-02T01:28:10.549Z,84.80
2022-11-02T01:29:10.313Z,84.82
2022-11-02T01:30:10.417Z,84.87
2022-11-02T01:31:10.294Z,84.87
2022-11-02T01:32:10.426Z,84.81
2022-11-02T01:33:10.603Z,84.79
2022-11-02T01:34:10.309Z,84.81
2022-11-02T01:35:10.447Z,84.95
2022-11-02T01:36:10.306Z,84.96
2022-11-02T01:37:10.497Z,84.93
2022-11-02T01:38:10.220Z,84.94
2022-11-02T01:39:10.335Z,84.94
2022-11-02T01:40:10.475Z,84.87
2022-11-02T01:41:10.189Z,84.83
2022-11-02T01:42:10.305Z,84.81
2022-11-02T01:43:10.176Z,84.85
2022-11-02T01:44:10.308Z,84.91
2022-11-02T01:45:10.143Z,84.94
2022-11-02T01:46:10.383Z,85.01
2022-11-02T01:47:10.241Z,85.12
2022-11-02T01:48:10.268Z,85.13
2022-11-02T01:49:10.107Z,85.22
2022-11-02T01:50:10.231Z,85.34
2022-11-02T01:51:10.320Z,85.44
2022-11-02T01:52:10.077Z,85.45
2022-11-02T01:53:10.193Z,85.44
2022-11-02T01:54:10.058Z,85.42
2022-11-02T01:55:10.217Z,85.41
2022-11-02T01:56:10.084Z,85.40
2022-11-02T01:57:10.193Z,85.39
2022-11-02T01:58:10.025Z,85.39
2022-11-02T01:59:10.183Z,85.44
2022-11-02T02:00:10.017Z,85.56
2022-11-02T02:01:10.190Z,85.69
2022-11-02T02:02:10.161Z,85.67
2022-11-02T02:03:10.307Z,85.66
2022-11-02T02:04:09.958Z,85.61
2022-11-02T02:05:10.064Z,85.58
2022-11-02T02:06:09.935Z,85.58
2022-11-02T02:07:10.111Z,85.57
2022-11-02T02:08:09.919Z,85.60
2022-11-02T02:09:10.085Z,85.58
2022-11-02T02:10:09.907Z,85.58
2022-11-02T02:11:10.063Z,85.58
2022-11-02T02:12:09.876Z,85.60
2022-11-02T02:13:10.004Z,85.62
2022-11-02T02:14:09.854Z,85.69
2022-11-02T02:15:10.336Z,85.70
2022-11-02T02:16:09.856Z,85.68
2022-11-02T02:17:10.012Z,85.69
2022-11-02T02:18:09.817Z,85.71
2022-11-02T02:19:09.927Z,85.62
2022-11-02T02:20:09.796Z,85.58
2022-11-02T02:21:10.020Z,85.51
2022-11-02T02:22:09.777Z,85.49
2022-11-02T02:23:09.888Z,85.45
2022-11-02T02:24:09.763Z,85.48
2022-11-02T02:25:09.923Z,85.47
2022-11-02T02:26:09.737Z,85.47
2022-11-02T02:27:09.946Z,85.41
2022-11-02T02:28:09.714Z,85.31
2022-11-02T02:29:09.877Z,85.19
2022-11-02T02:30:09.746Z,85.14
2022-11-02T02:31:09.811Z,85.11
2022-11-02T02:32:09.675Z,85.10
2022-11-02T02:33:09.943Z,85.08
2022-11-02T02:34:09.662Z,85.00
2022-11-02T02:35:09.781Z,84.96
2022-11-02T02:36:09.631Z,84.92
2022-11-02T02:37:09.807Z,84.89
2022-11-02T02:38:09.613Z,84.88
2022-11-02T02:39:09.777Z,84.88
2022-11-02T02:40:09.594Z,84.88
2022-11-02T02:41:09.808Z,84.85
2022-11-02T02:42:09.580Z,84.88
2022-11-02T02:43:09.696Z,84.85
2022-11-02T02:44:09.553Z,84.84
2022-11-02T02:45:09.781Z,84.87
2022-11-02T02:46:09.529Z,84.87
2022-11-02T02:47:09.749Z,84.86
2022-11-02T02:48:09.511Z,84.85
2022-11-02T02:49:09.616Z,84.74
2022-11-02T02:50:09.508Z,84.73
2022-11-02T02:51:09.718Z,84.72
2022-11-02T02:52:09.469Z,84.71
2022-11-02T02:53:09.700Z,84.74
2022-11-02T02:54:09.447Z,84.70
2022-11-02T02:55:09.567Z,84.69
2022-11-02T02:56:09.440Z,84.61
2022-11-02T02:57:09.644Z,84.58
2022-11-02T02:58:09.407Z,84.53
2022-11-02T02:59:09.533Z,84.54
2022-11-02T03:00:09.391Z,84.57
2022-11-02T03:01:09.743Z,84.54
2022-11-02T03:02:09.526Z,84.47
2022-11-02T03:03:09.614Z,84.39
2022-11-02T03:04:09.348Z,84.31
2022-11-02T03:05:09.442Z,84.27
2022-11-02T03:06:09.325Z,84.25
2022-11-02T03:07:09.491Z,84.24
2022-11-02T03:08:09.306Z,84.20
2022-11-02T03:09:09.519Z,84.21
2022-11-02T03:10:09.289Z,84.18
2022-11-02T03:11:09.392Z,84.12
2022-11-02T03:12:09.268Z,84.08
2022-11-02T03:13:09.432Z,84.04
2022-11-02T03:14:09.248Z,83.98
2022-11-02T03:15:09.562Z,83.91
2022-11-02T03:16:09.231Z,83.86
2022-11-02T03:17:09.338Z,83.85
2022-11-02T03:18:09.205Z,83.79
2022-11-02T03:19:09.370Z,83.83
2022-11-02T03:20:09.184Z,83.88
2022-11-02T03:21:09.355Z,83.94
2022-11-02T03:22:09.180Z,83.90
2022-11-02T03:23:09.326Z,83.91
2022-11-02T03:24:09.147Z,83.92
2022-11-02T03:25:09.336Z,83.97
2022-11-02T03:26:09.124Z,83.96
2022-11-02T03:27:09.337Z,83.86
2022-11-02T03:28:09.105Z,83.81
2022-11-02T03:29:10.256Z,83.79
2022-11-02T03:30:09.213Z,83.78
2022-11-02T03:31:09.074Z,83.77
2022-11-02T03:32:09.246Z,83.79
2022-11-02T03:33:09.316Z,83.83
2022-11-02T03:34:09.042Z,83.75
2022-11-02T03:35:09.206Z,83.71
2022-11-02T03:36:09.023Z,83.69
2022-11-02T03:38:08.017Z,83.59
2022-11-02T03:39:09.214Z,83.61
2022-11-02T03:40:08.984Z,83.55
2022-11-02T03:41:09.099Z,83.55
2022-11-02T03:42:08.966Z,83.49
2022-11-02T03:43:09.126Z,83.44
2022-11-02T03:44:08.939Z,83.44
2022-11-02T03:45:09.226Z,83.43
2022-11-02T03:46:08.919Z,83.46
2022-11-02T03:47:09.337Z,83.46
2022-11-02T03:48:08.907Z,83.52
2022-11-02T03:49:09.017Z,83.51
2022-11-02T03:50:08.880Z,83.47
2022-11-02T03:51:09.097Z,83.47
2022-11-02T03:52:08.863Z,83.41
2022-11-02T03:53:08.973Z,83.36
2022-11-02T03:54:08.838Z,83.35
2022-11-02T03:55:09.007Z,83.32
2022-11-02T03:56:08.831Z,83.39
2022-11-02T03:57:09.049Z,83.49
2022-11-02T03:58:08.802Z,83.53
2022-11-02T03:59:08.888Z,83.53
2022-11-02T04:00:08.804Z,83.54
2022-11-02T04:01:08.999Z,83.57
2022-11-02T04:02:08.860Z,83.62
2022-11-02T04:03:08.971Z,83.59
2022-11-02T04:04:08.739Z,83.55
2022-11-02T04:05:08.854Z,83.53
2022-11-02T04:06:08.721Z,83.52
2022-11-02T04:07:08.943Z,83.49
2022-11-02T04:08:08.702Z,83.51
2022-11-02T04:09:09.924Z,83.53
2022-11-02T04:10:08.829Z,83.50
2022-11-02T04:11:08.678Z,83.49
2022-11-02T04:12:08.832Z,83.47
2022-11-02T04:13:08.667Z,83.49
2022-11-02T04:14:08.757Z,83.52
2022-11-02T04:15:08.880Z,83.54
2022-11-02T04:16:08.616Z,83.56
2022-11-02T04:17:08.734Z,83.56
2022-11-02T04:18:08.599Z,83.57
2022-11-02T04:19:08.771Z,83.58
2022-11-02T04:20:08.579Z,83.61
2022-11-02T04:21:08.791Z,83.60
2022-11-02T04:22:08.569Z,83.59
2022-11-02T04:23:08.921Z,83.59
2022-11-02T04:24:08.538Z,83.57
2022-11-02T04:25:08.661Z,83.62
2022-11-02T04:26:08.515Z,83.68
2022-11-02T04:27:08.728Z,83.71
2022-11-02T04:28:08.503Z,83.66
2022-11-02T04:29:08.642Z,83.64
2022-11-02T04:30:08.483Z,83.64
2022-11-02T04:31:08.641Z,83.67
2022-11-02T04:32:08.453Z,83.68
2022-11-02T04:33:08.630Z,83.72
2022-11-02T04:34:08.433Z,83.74
2022-11-02T04:35:08.625Z,83.89
2022-11-02T04:36:08.429Z,84.06
2022-11-02T04:37:08.517Z,84.20
2022-11-02T04:38:08.691Z,84.25
2022-11-02T04:39:08.918Z,84.22
2022-11-02T04:40:08.374Z,84.22
2022-11-02T04:41:08.587Z,84.24
2022-11-02T04:42:08.358Z,84.25
2022-11-02T04:43:08.488Z,84.24
2022-11-02T04:44:08.335Z,84.22
2022-11-02T04:45:08.495Z,84.17
2022-11-02T04:46:08.314Z,84.16
2022-11-02T04:47:08.469Z,84.17
2022-11-02T04:48:08.352Z,84.14
2022-11-02T04:49:08.404Z,84.15
2022-11-02T04:50:08.276Z,84.15
2022-11-02T04:51:08.513Z,84.12
2022-11-02T04:52:08.264Z,84.05
2022-11-02T04:53:08.417Z,84.00
2022-11-02T04:54:08.236Z,84.04
2022-11-02T04:55:08.470Z,84.04
2022-11-02T04:56:08.211Z,84.07
2022-11-02T04:57:08.376Z,84.19
2022-11-02T04:58:08.478Z,84.17
2022-11-02T04:59:08.357Z,84.22
2022-11-02T05:00:08.176Z,84.24
2022-11-02T05:01:08.394Z,84.47
2022-11-02T05:02:08.337Z,84.64
2022-11-02T05:03:11.427Z,84.58
2022-11-02T05:04:08.139Z,84.55
2022-11-02T05:05:08.296Z,84.48
2022-11-02T05:06:08.110Z,84.40
2022-11-02T05:07:08.524Z,84.37
2022-11-02T05:08:08.141Z,84.46
2022-11-02T05:09:08.265Z,84.31
2022-11-02T05:10:08.073Z,84.18
2022-11-02T05:11:08.230Z,84.19
2022-11-02T05:12:08.052Z,84.21
2022-11-02T05:13:08.166Z,84.19
2022-11-02T05:14:08.269Z,84.24
2022-11-02T05:15:08.017Z,84.16
2022-11-02T05:16:08.141Z,84.07
2022-11-02T05:17:08.033Z,84.07
2022-11-02T05:18:08.623Z,83.94
2022-11-02T05:19:10.032Z,83.95
2022-11-02T05:20:08.204Z,84.04
2022-11-02T05:21:07.962Z,83.96
2022-11-02T05:22:08.109Z,83.95
2022-11-02T05:23:07.966Z,83.92
2022-11-02T05:24:08.108Z,83.91
2022-11-02T05:25:07.918Z,83.75
2022-11-02T05:26:08.094Z,83.76
2022-11-02T05:27:07.912Z,83.81
2022-11-02T05:28:08.064Z,83.96
2022-11-02T05:29:07.886Z,84.13
2022-11-02T05:30:08.190Z,84.22
2022-11-02T05:31:07.861Z,84.26
2022-11-02T05:32:08.034Z,84.31
2022-11-02T05:33:07.842Z,84.29
2022-11-02T05:34:08.010Z,84.23
2022-11-02T05:35:07.816Z,84.12
2022-11-02T05:36:07.940Z,83.97
2022-11-02T05:37:07.796Z,83.92
2022-11-02T05:38:08.035Z,83.89
2022-11-02T05:39:07.813Z,83.83
2022-11-02T05:40:07.943Z,83.82
2022-11-02T05:41:07.756Z,83.73
2022-11-02T05:42:07.930Z,83.67
2022-11-02T05:43:08.006Z,83.75
2022-11-02T05:44:07.969Z,83.84
2022-11-02T05:45:07.719Z,83.90
2022-11-02T05:46:07.893Z,83.88
2022-11-02T05:47:07.693Z,83.86
2022-11-02T05:48:07.812Z,83.85
2022-11-02T05:49:07.692Z,83.92
2022-11-02T05:50:07.883Z,83.98
2022-11-02T05:51:07.659Z,84.01
2022-11-02T05:52:07.824Z,83.99
2022-11-02T05:53:07.854Z,84.00
2022-11-02T05:54:07.752Z,84.01
2022-11-02T05:55:07.624Z,84.04
2022-11-02T05:56:07.829Z,84.07
2022-11-02T05:57:07.597Z,84.12
2022-11-02T05:58:07.713Z,84.16
2022-11-02T05:59:07.608Z,84.18
2022-11-02T06:00:07.750Z,84.20
2022-11-02T06:01:07.553Z,84.26
2022-11-02T06:02:07.770Z,84.32
2022-11-02T06:03:07.729Z,84.37
2022-11-02T06:04:07.770Z,84.52
2022-11-02T06:05:07.639Z,84.56
2022-11-02T06:06:13.530Z,84.69
2022-11-02T06:07:07.618Z,84.85
2022-11-02T06:08:07.725Z,84.93
2022-11-02T06:09:07.657Z,85.07
2022-11-02T06:10:07.617Z,85.08
2022-11-02T06:11:07.454Z,85.13
2022-11-02T06:12:07.616Z,85.21
2022-11-02T06:13:07.727Z,85.29
2022-11-02T06:14:07.598Z,85.50
2022-11-02T06:15:07.417Z,85.68
2022-11-02T06:16:07.576Z,85.92
2022-11-02T06:17:07.401Z,85.98
2022-11-02T06:18:07.561Z,85.98
2022-11-02T06:19:07.401Z,85.96
2022-11-02T06:20:07.535Z,86.13
2022-11-02T06:21:07.362Z,86.20
2022-11-02T06:22:07.523Z,86.30
2022-11-02T06:23:07.898Z,86.38
2022-11-02T06:24:07.459Z,86.44
2022-11-02T06:25:07.315Z,86.50
2022-11-02T06:26:07.532Z,86.63
2022-11-02T06:27:07.295Z,86.59
2022-11-02T06:28:07.461Z,86.73
2022-11-02T06:29:07.273Z,86.76
2022-11-02T06:30:07.635Z,86.72
2022-11-02T06:31:07.253Z,86.79
2022-11-02T06:32:07.428Z,86.98
2022-11-02T06:33:07.503Z,86.99
2022-11-02T06:34:07.406Z,87.05
2022-11-02T06:35:07.215Z,87.17
2022-11-02T06:36:07.335Z,87.19
2022-11-02T06:37:07.194Z,87.11
2022-11-02T06:38:07.421Z,87.11
2022-11-02T06:39:07.171Z,87.02
2022-11-02T06:40:07.336Z,87.02
2022-11-02T06:41:07.153Z,87.05
2022-11-02T06:42:07.266Z,86.92
2022-11-02T06:43:23.064Z,86.73
2022-11-02T06:44:07.370Z,86.73
2022-11-02T06:45:07.112Z,86.79
2022-11-02T06:46:07.234Z,86.94
2022-11-02T06:47:07.088Z,87.05
2022-11-02T06:48:07.267Z,87.15
2022-11-02T06:49:07.076Z,87.10
2022-11-02T06:50:07.354Z,87.04
2022-11-02T06:51:07.053Z,87.10
2022-11-02T06:52:07.168Z,87.07
2022-11-02T06:53:07.428Z,87.02
2022-11-02T06:54:08.797Z,87.08
2022-11-02T06:55:07.015Z,87.17
2022-11-02T06:56:07.226Z,87.00
2022-11-02T06:57:06.992Z,86.98
2022-11-02T06:58:07.110Z,86.99
2022-11-02T06:59:06.970Z,87.07
2022-11-02T07:01:06.051Z,86.99
2022-11-02T07:02:07.317Z,87.03
2022-11-02T07:03:07.448Z,87.03
2022-11-02T07:04:07.096Z,87.06
2022-11-02T07:05:06.905Z,87.03
2022-11-02T07:06:12.715Z,86.98
2022-11-02T07:07:06.937Z,87.08
2022-11-02T07:08:07.054Z,87.13
2022-11-02T07:09:06.869Z,87.08
2022-11-02T07:10:07.038Z,87.01
2022-11-02T07:11:06.849Z,87.02
2022-11-02T07:12:07.013Z,87.01
2022-11-02T07:13:07.091Z,87.04
2022-11-02T07:14:07.008Z,86.94
2022-11-02T07:15:06.809Z,86.86
2022-11-02T07:16:06.986Z,86.68
2022-11-02T07:17:06.789Z,86.67
2022-11-02T07:18:06.989Z,86.71
2022-11-02T07:19:06.764Z,86.76
2022-11-02T07:20:06.921Z,86.85
2022-11-02T07:21:06.793Z,86.98
2022-11-02T07:22:06.961Z,87.03
2022-11-02T07:23:07.169Z,87.06
2022-11-02T07:24:06.909Z,87.06
2022-11-02T07:25:06.710Z,87.04
2022-11-02T07:26:06.870Z,87.06
2022-11-02T07:27:06.685Z,87.07
2022-11-02T07:28:06.836Z,87.07
2022-11-02T07:29:06.672Z,87.07
2022-11-02T07:30:06.844Z,87.04
2022-11-02T07:31:06.660Z,86.98
2022-11-02T07:32:06.810Z,87.02
2022-11-02T07:33:06.967Z,87.03
2022-11-02T07:34:06.791Z,87.06
2022-11-02T07:35:06.606Z,87.04
2022-11-02T07:36:06.775Z,87.01
2022-11-02T07:37:06.585Z,86.95
2022-11-02T07:38:07.025Z,86.92
2022-11-02T07:39:06.566Z,86.87
2022-11-02T07:40:06.734Z,86.85
2022-11-02T07:41:06.561Z,86.78
2022-11-02T07:43:05.856Z,86.75
2022-11-02T07:44:06.790Z,86.69
2022-11-02T07:45:06.518Z,86.68
2022-11-02T07:46:06.586Z,86.70
2022-11-02T07:47:06.483Z,86.70
2022-11-02T07:48:06.650Z,86.69
2022-11-02T07:49:06.469Z,86.68
2022-11-02T07:50:06.693Z,86.68
2022-11-02T07:51:06.451Z,86.78
2022-11-02T07:52:06.566Z,86.84
2022-11-02T07:53:07.023Z,86.93
2022-11-02T07:54:06.595Z,87.11
2022-11-02T07:55:06.401Z,87.16
2022-11-02T07:56:06.645Z,87.22
2022-11-02T07:57:06.385Z,87.24
2022-11-02T07:58:06.551Z,87.18
2022-11-02T07:59:06.362Z,87.11
2022-11-02T08:00:06.494Z,87.08
2022-11-02T08:01:06.345Z,87.02
2022-11-02T08:02:06.563Z,86.99
2022-11-02T08:03:06.706Z,86.97
2022-11-02T08:04:06.440Z,86.95
2022-11-02T08:05:06.309Z,86.88
2022-11-02T08:06:06.473Z,86.98
2022-11-02T08:07:06.282Z,86.98
2022-11-02T08:08:06.960Z,86.98
2022-11-02T08:09:06.259Z,87.03
2022-11-02T08:10:06.381Z,86.98
2022-11-02T08:11:06.247Z,86.92
2022-11-02T08:12:06.402Z,86.94
2022-11-02T08:13:06.273Z,87.00
2022-11-02T08:14:06.392Z,87.05
2022-11-02T08:15:07.675Z,87.06
2022-11-02T08:16:06.317Z,87.10
2022-11-02T08:17:06.188Z,87.12
2022-11-02T08:18:06.648Z,87.13
2022-11-02T08:19:06.231Z,87.14
2022-11-02T08:20:07.099Z,87.10
2022-11-02T08:21:06.154Z,87.12
2022-11-02T08:22:06.256Z,87.09
2022-11-02T08:23:06.120Z,87.05
2022-11-02T08:24:06.271Z,87.07
2022-11-02T08:25:06.223Z,87.06
2022-11-02T08:26:06.333Z,87.07
2022-11-02T08:27:06.080Z,87.05
2022-11-02T08:28:06.598Z,87.07
2022-11-02T08:29:06.086Z,87.11
2022-11-02T08:30:07.877Z,87.10
2022-11-02T08:31:06.092Z,87.14
2022-11-02T08:32:06.156Z,87.13
2022-11-02T08:33:06.042Z,87.13
2022-11-02T08:34:06.181Z,87.16
2022-11-02T08:35:06.001Z,87.22
2022-11-02T08:36:06.120Z,87.25
2022-11-02T08:37:06.025Z,87.30
2022-11-02T08:38:06.499Z,87.40
2022-11-02T08:39:05.958Z,87.46
2022-11-02T08:40:06.129Z,87.44
2022-11-02T08:41:05.939Z,87.38
2022-11-02T08:42:06.054Z,87.35
2022-11-02T08:43:06.189Z,87.32
2022-11-02T08:44:05.905Z,87.29
2022-11-02T08:45:06.066Z,87.24
2022-11-02T08:46:14.811Z,87.24
2022-11-02T08:47:09.344Z,87.22
2022-11-02T08:48:06.245Z,87.18
2022-11-02T08:49:06.057Z,87.19
2022-11-02T08:50:05.846Z,87.21
2022-11-02T08:51:06.043Z,87.21
2022-11-02T08:52:05.824Z,87.31
2022-11-02T08:53:06.059Z,87.41
2022-11-02T08:54:05.817Z,87.39
2022-11-02T08:55:05.982Z,87.39
2022-11-02T08:56:05.790Z,87.36
2022-11-02T08:57:05.955Z,87.36
2022-11-02T08:58:06.245Z,87.34
2022-11-02T08:59:05.939Z,87.36
2022-11-02T09:00:05.749Z,87.34
2022-11-02T09:01:06.012Z,87.30
2022-11-02T09:02:05.919Z,87.31
2022-11-02T09:03:06.005Z,87.29
2022-11-02T09:04:05.700Z,87.30
2022-11-02T09:05:05.870Z,87.35
2022-11-02T09:06:05.693Z,87.36
2022-11-02T09:07:05.903Z,87.36
2022-11-02T09:08:06.040Z,87.36
2022-11-02T09:09:05.781Z,87.37
2022-11-02T09:10:05.650Z,87.37
2022-11-02T09:11:05.871Z,87.39
2022-11-02T09:12:05.624Z,87.34
2022-11-02T09:13:06.230Z,87.40
2022-11-02T09:14:05.645Z,87.41
2022-11-02T09:15:05.865Z,87.43
2022-11-02T09:16:05.583Z,87.45
2022-11-02T09:17:05.710Z,87.45
2022-11-02T09:18:05.871Z,87.45
2022-11-02T09:19:05.761Z,87.48
2022-11-02T09:20:05.543Z,87.50
2022-11-02T09:21:05.716Z,87.51
2022-11-02T09:22:05.924Z,87.61
2022-11-02T09:23:05.640Z,87.59
2022-11-02T09:24:05.511Z,87.54
2022-11-02T09:25:05.729Z,87.53
2022-11-02T09:26:05.483Z,87.52
2022-11-02T09:27:05.650Z,87.49
2022-11-02T09:28:05.792Z,87.50
2022-11-02T09:29:05.579Z,87.56
2022-11-02T09:30:05.446Z,87.56
2022-11-02T09:31:08.921Z,87.62
2022-11-02T09:32:05.427Z,87.62
2022-11-02T09:33:06.050Z,87.75
2022-11-02T09:34:05.403Z,87.89
2022-11-02T09:35:05.529Z,87.93
2022-11-02T09:36:05.383Z,88.02
2022-11-02T09:37:05.676Z,88.04
2022-11-02T09:38:05.362Z,88.02
2022-11-02T09:39:05.479Z,87.99
2022-11-02T09:40:05.351Z,87.96
2022-11-02T09:41:05.556Z,87.94
2022-11-02T09:42:05.321Z,87.95
2022-11-02T09:43:05.879Z,87.97
2022-11-02T09:44:05.298Z,87.98
2022-11-02T09:45:05.545Z,87.97
2022-11-02T09:46:05.277Z,87.94
2022-11-02T09:48:16.421Z,87.95
2022-11-02T09:49:05.430Z,87.82
2022-11-02T09:50:05.242Z,87.74
2022-11-02T09:51:05.409Z,87.70
2022-11-02T09:52:05.220Z,87.78
2022-11-02T09:53:05.652Z,87.78
2022-11-02T09:54:05.207Z,87.72
2022-11-02T09:55:05.419Z,87.72
2022-11-02T09:56:05.176Z,87.69
2022-11-02T09:57:05.342Z,87.68
2022-11-02T09:58:05.570Z,87.67
2022-11-02T09:59:05.281Z,87.71
2022-11-02T10:00:05.137Z,87.73
2022-11-02T10:01:05.367Z,87.75
2022-11-02T10:02:05.125Z,87.76
2022-11-02T10:03:05.286Z,87.75
2022-11-02T10:04:05.108Z,87.74
2022-11-02T10:05:05.536Z,87.74
2022-11-02T10:06:05.084Z,87.79
2022-11-02T10:07:05.294Z,87.83
2022-11-02T10:08:05.285Z,87.88
2022-11-02T10:09:05.237Z,87.89
2022-11-02T10:10:05.038Z,87.91
2022-11-02T10:11:08.087Z,87.91
2022-11-02T10:12:05.033Z,87.90
2022-11-02T10:13:05.410Z,87.94
2022-11-02T10:14:05.025Z,87.95
2022-11-02T10:15:05.332Z,87.99
2022-11-02T10:16:04.980Z,88.02
2022-11-02T10:17:05.092Z,88.04
2022-11-02T10:18:04.958Z,88.04
2022-11-02T10:19:05.182Z,88.05
2022-11-02T10:20:04.937Z,88.11
2022-11-02T10:21:05.040Z,88.19
2022-11-02T10:22:04.942Z,88.19
2022-11-02T10:23:05.454Z,88.23
2022-11-02T10:24:04.904Z,88.39
2022-11-02T10:25:05.074Z,88.46
2022-11-02T10:26:04.890Z,88.49
2022-11-02T10:27:07.927Z,88.57
2022-11-02T10:28:04.915Z,88.55
2022-11-02T10:29:04.968Z,88.53
2022-11-02T10:30:04.843Z,88.55
2022-11-02T10:31:05.082Z,88.59
2022-11-02T10:32:04.815Z,88.52
2022-11-02T10:33:05.297Z,88.40
2022-11-02T10:34:04.793Z,88.46
2022-11-02T10:35:26.145Z,88.52
2022-11-02T10:36:17.324Z,88.58
2022-11-02T10:37:04.995Z,88.63
2022-11-02T10:38:06.366Z,88.71
2022-11-02T10:39:04.923Z,88.77
2022-11-02T10:40:04.737Z,88.85
2022-11-02T10:41:04.859Z,88.86
2022-11-02T10:42:04.718Z,88.91
2022-11-02T10:43:04.921Z,88.90
2022-11-02T10:44:04.716Z,88.93
2022-11-02T10:45:04.809Z,89.08
2022-11-02T10:46:04.679Z,89.12
2022-11-02T10:47:04.860Z,89.11
2022-11-02T10:48:04.875Z,89.20
2022-11-02T10:49:04.854Z,89.12
2022-11-02T10:50:08.164Z,89.04
2022-11-02T10:51:04.747Z,89.01
2022-11-02T10:52:04.618Z,88.97
2022-11-02T10:53:27.402Z,88.91
2022-11-02T10:55:03.685Z,88.91
2022-11-02T10:56:04.938Z,88.92
2022-11-02T10:57:04.565Z,89.00
2022-11-02T10:58:04.947Z,88.99
2022-11-02T10:59:04.543Z,89.07
2022-11-02T11:00:04.762Z,89.18
2022-11-02T11:01:04.562Z,89.23
2022-11-02T11:02:04.844Z,89.16
2022-11-02T11:03:04.502Z,88.85
2022-11-02T11:04:04.671Z,88.82
2022-11-02T11:05:04.477Z,88.80
2022-11-02T11:06:04.690Z,88.92
2022-11-02T11:07:04.458Z,88.92
2022-11-02T11:08:04.926Z,88.91
2022-11-02T11:09:04.440Z,88.90
2022-11-02T11:10:04.592Z,89.01
2022-11-02T11:11:04.429Z,89.17
2022-11-02T11:12:04.652Z,89.24
2022-11-02T11:13:04.558Z,89.19
2022-11-02T11:16:03.474Z,88.88
2022-11-02T11:20:05.945Z,88.67
2022-11-02T11:21:04.488Z,88.59
2022-11-02T11:22:04.315Z,88.57
2022-11-02T11:23:04.832Z,88.55
2022-11-02T11:24:04.352Z,88.49
2022-11-02T11:25:04.654Z,88.49
2022-11-02T11:26:04.272Z,88.43
2022-11-02T11:27:04.383Z,88.43
2022-11-02T11:28:04.683Z,88.47
2022-11-02T11:29:04.520Z,88.49
2022-11-02T11:30:04.234Z,88.45
2022-11-02T11:31:04.347Z,88.42
2022-11-02T11:32:04.226Z,88.41
2022-11-02T11:33:04.393Z,88.38
2022-11-02T11:34:04.237Z,88.38
2022-11-02T11:35:04.318Z,88.35
2022-11-02T11:36:04.171Z,88.37
2022-11-02T11:37:04.353Z,88.44
2022-11-02T11:38:04.523Z,88.52
2022-11-02T11:39:04.270Z,88.59
2022-11-02T11:40:04.356Z,88.54
2022-11-02T11:41:04.117Z,88.51
2022-11-02T11:42:04.245Z,88.51
2022-11-02T11:43:04.098Z,88.56
2022-11-02T11:44:04.265Z,88.68
2022-11-02T11:45:04.092Z,88.77
2022-11-02T11:46:06.872Z,88.76
2022-11-02T11:47:04.063Z,88.69
2022-11-02T11:48:04.675Z,88.67
2022-11-02T11:49:04.040Z,88.61
2022-11-02T11:50:11.361Z,88.49
2022-11-02T11:51:04.014Z,88.44
2022-11-02T11:52:04.185Z,88.39
2022-11-02T11:53:04.374Z,88.31
2022-11-02T11:54:04.158Z,88.33
2022-11-02T11:55:03.973Z,88.36
2022-11-02T11:56:04.108Z,88.37
2022-11-02T11:57:03.957Z,88.34
2022-11-02T11:58:04.624Z,88.40
2022-11-02T11:59:03.947Z,88.43
2022-11-02T12:00:04.062Z,88.38
2022-11-02T12:01:09.421Z,88.35
2022-11-02T12:02:04.445Z,88.41
2022-11-02T12:03:04.538Z,88.53
2022-11-02T12:04:04.048Z,88.62
2022-11-02T12:05:03.888Z,88.78
2022-11-02T12:06:04.054Z,88.87
2022-11-02T12:07:03.871Z,88.96
2022-11-02T12:08:04.025Z,88.99
2022-11-02T12:09:04.795Z,89.24
2022-11-02T12:10:04.005Z,89.23
2022-11-02T12:11:03.887Z,88.99
2022-11-02T12:12:03.995Z,88.90
2022-11-02T12:13:04.247Z,88.91
2022-11-02T12:14:03.910Z,88.98
2022-11-02T12:15:06.848Z,89.00
2022-11-02T12:16:04.994Z,88.79
2022-11-02T12:17:03.876Z,88.80
2022-11-02T12:18:04.064Z,88.92
2022-11-02T12:19:03.891Z,89.08
2022-11-02T12:20:03.722Z,89.14
2022-11-02T12:21:03.843Z,89.16
2022-11-02T12:22:03.928Z,89.04
2022-11-02T12:23:04.202Z,89.00
2022-11-02T12:24:03.822Z,88.89
2022-11-02T12:25:03.683Z,88.82
2022-11-02T12:26:04.988Z,88.90
2022-11-02T12:27:03.676Z,89.06
2022-11-02T12:28:03.917Z,89.10
2022-11-02T12:29:03.639Z,89.15
2022-11-02T12:30:03.753Z,89.13
2022-11-02T12:31:03.613Z,89.08
2022-11-02T12:32:03.777Z,89.01
2022-11-02T12:33:04.080Z,88.99
2022-11-02T12:34:03.766Z,89.02
2022-11-02T12:36:02.673Z,88.92
2022-11-02T12:37:41.332Z,88.94
2022-11-02T12:38:03.960Z,88.91
2022-11-02T12:39:03.765Z,89.05
2022-11-02T12:40:03.526Z,89.13
2022-11-02T12:41:03.712Z,89.10
2022-11-02T12:42:03.510Z,89.29
2022-11-02T12:43:04.045Z,89.34
2022-11-02T12:44:03.483Z,89.45
2022-11-02T12:45:04.095Z,89.49
2022-11-02T12:46:03.466Z,89.57
2022-11-02T12:47:03.577Z,89.53
2022-11-02T12:48:03.884Z,89.54
2022-11-02T12:49:03.658Z,89.52
2022-11-02T12:50:03.430Z,89.40
2022-11-02T12:51:03.621Z,89.37
2022-11-02T12:52:03.407Z,89.36
2022-11-02T12:53:03.940Z,89.30
2022-11-02T12:54:03.380Z,89.28
2022-11-02T12:55:03.464Z,89.26
2022-11-02T12:56:03.360Z,89.19
2022-11-02T12:57:03.581Z,89.11
2022-11-02T12:58:03.866Z,89.05
2022-11-02T12:59:03.937Z,89.04
2022-11-02T13:00:03.322Z,89.00
2022-11-02T13:01:03.609Z,88.92
2022-11-02T13:02:03.586Z,89.24
2022-11-02T13:03:03.946Z,89.38